アイウン の空港の天気 - METARとTAF

アイウン/ハッサン空港 ( GMML / EUN ) - 西サハラ アイウン
飛行場実況気象(Metar)
観測時間12/14 06:00 WET (12/14 06:00 UTC)
風向・風速北北東 5m/s
視程10km以上
天気現象
全天の8割程度の雲 雲底高度 1220m
気温17℃
湿度100%
気圧1024hPa
METARGMML 140600Z 02010KT 9999 BKN040 17/17 Q1024 NOSIG
過去の天気等 Google飛行場航空写真 Wunderground天気予報

過去48時間のMETAR

飛行場予報(TAF)
発表時間: 12/14 05:00 WET (12/14 05:00 UTC)
予報対象時間: 14日6時 WET ~ 15日12時 WET
風向・風速北北東 4m/s
視程10km以上
全天の8割程度の雲 雲底高度 610m
TAF GMML 140500Z 1406/1512 02008KT 9999 BKN020